createdAt,value
2019-02-09T00:01:47.337Z,8.50
2019-02-09T00:04:17.020Z,7.37
2019-02-09T00:06:46.697Z,5.83
2019-02-09T00:09:16.293Z,3.10
2019-02-09T00:11:45.893Z,6.47
2019-02-09T00:14:15.510Z,5.97
2019-02-09T00:16:45.097Z,20.53
2019-02-09T00:19:14.702Z,6.00
2019-02-09T00:21:44.322Z,8.80
2019-02-09T00:24:14.013Z,4.83
2019-02-09T00:26:43.645Z,5.63
2019-02-09T00:29:13.251Z,9.90
2019-02-09T00:31:42.848Z,6.03
2019-02-09T00:34:12.535Z,8.20
2019-02-09T00:36:42.158Z,6.07
2019-02-09T00:39:11.933Z,9.87
2019-02-09T00:41:41.558Z,8.13
2019-02-09T00:44:11.317Z,8.47
2019-02-09T00:46:40.906Z,7.60
2019-02-09T00:49:10.506Z,12.43
2019-02-09T00:51:40.126Z,19.13
2019-02-09T00:54:09.710Z,12.77
2019-02-09T00:56:39.327Z,11.13
2019-02-09T00:59:08.941Z,14.40
2019-02-09T01:01:38.581Z,11.90
2019-02-09T01:04:08.340Z,22.67
2019-02-09T01:06:39.073Z,19.03
2019-02-09T01:09:12.441Z,16.77
2019-02-09T01:11:42.086Z,14.93
2019-02-09T01:14:11.762Z,7.13
2019-02-09T01:16:41.361Z,9.60
2019-02-09T01:19:11.025Z,13.27
2019-02-09T01:21:40.886Z,7.63
2019-02-09T01:24:10.650Z,16.87
2019-02-09T01:26:40.242Z,9.20
2019-02-09T01:29:09.864Z,13.07
2019-02-09T01:31:39.469Z,11.80
2019-02-09T01:34:09.091Z,13.53
2019-02-09T01:36:38.801Z,14.20
2019-02-09T01:39:08.805Z,10.27
2019-02-09T01:41:38.486Z,10.93
2019-02-09T01:44:08.085Z,16.33
2019-02-09T01:46:37.686Z,17.93
2019-02-09T01:49:07.369Z,8.67
2019-02-09T01:51:36.966Z,32.43
2019-02-09T01:54:06.730Z,12.27
2019-02-09T01:56:36.340Z,16.23
2019-02-09T01:59:06.033Z,8.57
2019-02-09T02:04:40.242Z,10.57
2019-02-09T02:07:09.880Z,12.47
2019-02-09T02:09:39.541Z,15.97
2019-02-09T02:12:09.385Z,22.57
2019-02-09T02:14:38.978Z,12.47
2019-02-09T02:17:08.835Z,16.10
2019-02-09T02:19:38.491Z,19.00
2019-02-09T02:22:08.248Z,17.73
2019-02-09T02:24:37.853Z,23.77
2019-02-09T02:27:07.525Z,19.13
2019-02-09T02:29:37.145Z,22.50
2019-02-09T02:32:06.902Z,16.00
2019-02-09T02:34:37.549Z,10.00
2019-02-09T02:37:07.138Z,23.87
2019-02-09T02:39:37.050Z,14.00
2019-02-09T02:42:06.853Z,24.20
2019-02-09T02:44:36.525Z,37.40
2019-02-09T02:47:06.121Z,31.83
2019-02-09T02:49:35.720Z,15.13
2019-02-09T02:52:05.349Z,9.37
2019-02-09T02:54:34.949Z,16.30
2019-02-09T02:57:04.602Z,31.83
2019-02-09T02:59:34.199Z,24.60
2019-02-09T03:02:04.254Z,32.67
2019-02-09T03:04:33.853Z,23.73
2019-02-09T03:07:03.455Z,32.50
2019-02-09T03:09:33.066Z,17.33
2019-02-09T03:12:02.641Z,25.97
2019-02-09T03:14:32.481Z,15.37
2019-02-09T03:17:02.153Z,36.03
2019-02-09T03:19:31.759Z,25.83
2019-02-09T03:22:01.385Z,27.70
2019-02-09T03:24:31.063Z,20.83
2019-02-09T03:27:00.653Z,27.47
2019-02-09T03:29:31.489Z,40.53
2019-02-09T03:32:01.197Z,32.63
2019-02-09T03:34:30.794Z,28.87
2019-02-09T03:37:00.402Z,29.50
2019-02-09T03:39:30.069Z,31.53
2019-02-09T03:41:59.751Z,32.47
2019-02-09T03:44:29.383Z,30.33
2019-02-09T03:46:59.002Z,30.30
2019-02-09T03:49:28.604Z,16.93
2019-02-09T03:51:58.202Z,25.60
2019-02-09T03:54:27.855Z,35.27
2019-02-09T03:56:58.431Z,27.13
2019-02-09T03:59:28.099Z,25.73
2019-02-09T04:01:57.992Z,22.93
2019-02-09T04:04:27.602Z,26.90
2019-02-09T04:06:57.186Z,31.07
2019-02-09T04:09:26.787Z,20.03
2019-02-09T04:11:56.382Z,47.77
2019-02-09T04:14:25.990Z,19.77
2019-02-09T04:16:55.585Z,25.77
2019-02-09T04:19:25.206Z,30.73
2019-02-09T04:21:54.841Z,23.43
2019-02-09T04:24:24.518Z,26.77
2019-02-09T04:26:54.124Z,33.43
2019-02-09T04:29:23.705Z,20.33
2019-02-09T04:31:53.543Z,25.17
2019-02-09T04:34:23.310Z,28.53
2019-02-09T04:36:52.906Z,27.70
2019-02-09T04:39:22.502Z,34.37
2019-02-09T04:41:52.129Z,24.37
2019-02-09T04:44:21.730Z,28.60
2019-02-09T04:46:51.344Z,28.07
2019-02-09T04:49:20.945Z,19.77
2019-02-09T04:51:50.542Z,33.47
2019-02-09T04:54:20.146Z,33.83
2019-02-09T04:56:49.755Z,33.40
2019-02-09T04:59:19.371Z,37.90
2019-02-09T05:01:49.051Z,30.37
2019-02-09T05:04:18.650Z,21.03
2019-02-09T05:06:48.254Z,28.03
2019-02-09T05:09:17.873Z,28.47
2019-02-09T05:11:47.513Z,25.87
2019-02-09T05:14:17.100Z,39.53
2019-02-09T05:16:46.704Z,32.03
2019-02-09T05:19:16.293Z,28.77
2019-02-09T05:21:45.893Z,24.33
2019-02-09T05:24:15.506Z,41.23
2019-02-09T05:26:45.106Z,31.03
2019-02-09T05:29:14.675Z,35.63
2019-02-09T05:31:44.275Z,25.27
2019-02-09T05:34:13.865Z,31.57
2019-02-09T05:36:43.549Z,40.90
2019-02-09T05:39:13.138Z,39.40
2019-02-09T05:41:42.726Z,37.53
2019-02-09T05:44:12.342Z,31.90
2019-02-09T05:46:41.972Z,37.80
2019-02-09T05:49:11.564Z,35.60
2019-02-09T05:51:41.257Z,49.40
2019-02-09T05:54:10.842Z,35.87
2019-02-09T05:56:40.454Z,32.67
2019-02-09T05:59:10.159Z,34.90
2019-02-09T06:01:39.754Z,34.37
2019-02-09T06:04:09.348Z,26.17
2019-02-09T06:06:38.947Z,38.07
2019-02-09T06:09:08.789Z,25.67
2019-02-09T06:11:38.405Z,23.23
2019-02-09T06:14:08.162Z,28.53
2019-02-09T06:16:37.737Z,25.47
2019-02-09T06:19:07.329Z,26.93
2019-02-09T06:21:36.953Z,29.23
2019-02-09T06:24:06.577Z,33.00
2019-02-09T06:26:36.193Z,20.63
2019-02-09T06:29:05.896Z,44.20
2019-02-09T06:31:41.031Z,39.57
2019-02-09T06:34:06.870Z,27.17
2019-02-09T06:36:36.469Z,30.23
2019-02-09T06:39:08.314Z,27.90
2019-02-09T06:41:37.977Z,31.57
2019-02-09T06:44:08.549Z,39.27
2019-02-09T06:46:38.153Z,39.30
2019-02-09T06:49:07.895Z,54.17
2019-02-09T06:51:37.510Z,35.40
2019-02-09T06:54:07.283Z,36.73
2019-02-09T06:56:36.890Z,49.97
2019-02-09T06:59:06.650Z,35.60
2019-02-09T07:01:36.237Z,38.77
2019-02-09T07:04:05.831Z,44.37
2019-02-09T07:06:35.451Z,40.30
2019-02-09T07:09:08.753Z,47.47
2019-02-09T07:11:38.430Z,38.10
2019-02-09T07:14:08.189Z,38.00
2019-02-09T07:16:37.893Z,34.07
2019-02-09T07:19:07.505Z,39.40
2019-02-09T07:21:37.114Z,33.20
2019-02-09T07:24:06.777Z,48.57
2019-02-09T07:26:36.414Z,44.77
2019-02-09T07:29:06.145Z,37.13
2019-02-09T07:31:35.753Z,52.33
2019-02-09T07:34:05.445Z,40.93
2019-02-09T07:36:36.059Z,48.43
2019-02-09T07:39:09.036Z,47.80
2019-02-09T07:41:38.663Z,43.17
2019-02-09T07:44:08.267Z,35.77
2019-02-09T07:46:37.862Z,41.70
2019-02-09T07:49:07.470Z,40.77
2019-02-09T07:51:38.060Z,46.50
2019-02-09T07:54:07.645Z,37.30
2019-02-09T07:56:37.253Z,29.60
2019-02-09T07:59:06.873Z,33.20
2019-02-09T08:01:36.469Z,49.73
2019-02-09T08:04:06.430Z,25.50
2019-02-09T08:06:36.070Z,31.50
2019-02-09T08:09:10.953Z,35.73
2019-02-09T08:11:40.949Z,41.13
2019-02-09T08:14:10.612Z,37.93
2019-02-09T08:16:40.282Z,42.70
2019-02-09T08:19:10.029Z,38.60
2019-02-09T08:21:39.710Z,26.63
2019-02-09T08:24:09.400Z,22.83
2019-02-09T08:26:39.073Z,44.37
2019-02-09T08:29:08.677Z,30.10
2019-02-09T08:31:38.414Z,33.10
2019-02-09T08:34:08.170Z,25.87
2019-02-09T08:36:37.791Z,31.57
2019-02-09T08:39:08.532Z,39.27
2019-02-09T08:41:38.143Z,41.13
2019-02-09T08:44:07.725Z,25.60
2019-02-09T08:46:37.345Z,39.10
2019-02-09T08:49:07.121Z,44.20
2019-02-09T08:51:36.782Z,21.90
2019-02-09T08:54:06.396Z,23.40
2019-02-09T08:56:36.002Z,34.23
2019-02-09T08:59:05.707Z,34.63
2019-02-09T09:01:35.550Z,35.27
2019-02-09T09:04:05.728Z,43.80
2019-02-09T09:06:35.396Z,29.03
2019-02-09T09:09:10.182Z,26.63
2019-02-09T09:11:39.930Z,30.17
2019-02-09T09:14:09.701Z,29.73
2019-02-09T09:16:39.325Z,36.63
2019-02-09T09:19:08.935Z,32.63
2019-02-09T09:21:38.535Z,42.43
2019-02-09T09:24:08.965Z,26.00
2019-02-09T09:26:38.672Z,38.90
2019-02-09T09:29:08.265Z,27.40
2019-02-09T09:31:37.938Z,29.03
2019-02-09T09:34:07.638Z,33.97
2019-02-09T09:36:38.348Z,29.80
2019-02-09T09:39:09.437Z,29.30
2019-02-09T09:41:39.157Z,41.47
2019-02-09T09:44:08.829Z,28.57
2019-02-09T09:46:38.456Z,34.10
2019-02-09T09:49:08.045Z,26.27
2019-02-09T09:51:37.651Z,20.57
2019-02-09T09:54:07.394Z,32.83
2019-02-09T09:56:37.024Z,30.93
2019-02-09T09:59:06.606Z,30.53
2019-02-09T10:01:36.263Z,27.77
2019-02-09T10:04:05.930Z,25.60
2019-02-09T10:06:35.578Z,29.33
2019-02-09T10:09:08.117Z,31.70
2019-02-09T10:11:37.734Z,30.23
2019-02-09T10:14:08.872Z,29.53
2019-02-09T10:16:38.886Z,39.27
2019-02-09T10:19:08.498Z,34.90
2019-02-09T10:21:38.082Z,26.90
2019-02-09T10:24:07.701Z,25.87
2019-02-09T10:26:37.376Z,21.80
2019-02-09T10:29:07.025Z,32.27
2019-02-09T10:31:36.639Z,23.03
2019-02-09T10:34:06.386Z,22.90
2019-02-09T10:36:36.054Z,20.60
2019-02-09T10:39:08.749Z,34.70
2019-02-09T10:41:38.446Z,44.60
2019-02-09T10:44:09.426Z,29.67
2019-02-09T10:46:39.045Z,28.77
2019-02-09T10:49:09.693Z,32.97
2019-02-09T10:51:39.305Z,36.57
2019-02-09T10:54:08.893Z,30.37
2019-02-09T10:56:38.526Z,37.83
2019-02-09T10:59:08.219Z,31.07
2019-02-09T11:01:38.272Z,30.03
2019-02-09T11:04:08.542Z,36.50
2019-02-09T11:06:38.202Z,31.53
2019-02-09T11:09:14.786Z,33.73
2019-02-09T11:11:44.382Z,26.03
2019-02-09T11:14:14.025Z,30.70
2019-02-09T11:16:43.807Z,39.03
2019-02-09T11:19:13.410Z,11.60
2019-02-09T11:21:43.018Z,22.30
2019-02-09T11:24:12.706Z,38.17
2019-02-09T11:26:42.325Z,37.20
2019-02-09T11:29:11.947Z,24.70
2019-02-09T11:31:41.634Z,27.70
2019-02-09T11:34:11.254Z,28.13
2019-02-09T11:36:40.950Z,21.13
2019-02-09T11:39:10.561Z,21.40
2019-02-09T11:41:40.153Z,24.13
2019-02-09T11:44:09.768Z,18.53
2019-02-09T11:46:39.405Z,24.83
2019-02-09T11:49:08.981Z,28.97
2019-02-09T11:51:38.596Z,28.97
2019-02-09T11:54:08.185Z,28.67
2019-02-09T11:56:37.853Z,23.20
2019-02-09T11:59:07.513Z,21.13
2019-02-09T12:01:37.121Z,36.83
2019-02-09T12:04:06.869Z,32.33
2019-02-09T12:06:36.509Z,39.23
2019-02-09T12:09:09.010Z,34.37
2019-02-09T12:11:38.632Z,17.27
2019-02-09T12:14:08.377Z,34.90
2019-02-09T12:16:38.053Z,38.03
2019-02-09T12:19:07.824Z,26.77
2019-02-09T12:21:37.421Z,21.13
2019-02-09T12:24:07.288Z,39.83
2019-02-09T12:26:36.882Z,50.00
2019-02-09T12:29:06.631Z,37.53
2019-02-09T12:31:36.398Z,38.47
2019-02-09T12:34:06.182Z,38.40
2019-02-09T12:36:36.750Z,35.17
2019-02-09T12:39:09.448Z,44.67
2019-02-09T12:41:39.088Z,30.90
2019-02-09T12:44:08.700Z,27.87
2019-02-09T12:46:38.309Z,36.30
2019-02-09T12:49:08.080Z,38.03
2019-02-09T12:51:37.686Z,38.77
2019-02-09T12:54:07.421Z,34.73
2019-02-09T12:56:37.031Z,31.93
2019-02-09T12:59:06.669Z,36.47
2019-02-09T13:01:36.266Z,31.90
2019-02-09T13:04:06.372Z,35.40
2019-02-09T13:06:35.969Z,31.30
2019-02-09T13:09:08.395Z,43.80
2019-02-09T13:11:38.993Z,38.47
2019-02-09T13:14:08.634Z,35.63
2019-02-09T13:16:38.237Z,21.43
2019-02-09T13:19:08.012Z,39.57
2019-02-09T13:21:37.641Z,35.57
2019-02-09T13:24:07.401Z,34.40
2019-02-09T13:26:37.026Z,32.63
2019-02-09T13:29:06.652Z,45.37
2019-02-09T13:31:36.281Z,29.70
2019-02-09T13:34:05.904Z,41.13
2019-02-09T13:36:35.612Z,40.10
2019-02-09T13:39:08.214Z,27.17
2019-02-09T13:41:37.829Z,34.30
2019-02-09T13:44:07.461Z,37.00
2019-02-09T13:46:37.075Z,32.17
2019-02-09T13:49:06.750Z,38.13
2019-02-09T13:51:36.439Z,31.53
2019-02-09T13:54:06.188Z,38.37
2019-02-09T13:56:35.808Z,51.37
2019-02-09T13:59:05.589Z,47.63
2019-02-09T14:01:36.258Z,39.77
2019-02-09T14:04:05.889Z,31.37
2019-02-09T14:07:11.660Z,40.50
2019-02-09T14:09:41.549Z,32.40
2019-02-09T14:12:11.186Z,43.70
2019-02-09T14:14:40.801Z,47.10
2019-02-09T14:17:10.406Z,35.10
2019-02-09T14:19:40.034Z,34.60
2019-02-09T14:22:09.638Z,31.83
2019-02-09T14:24:39.293Z,35.47
2019-02-09T14:27:09.327Z,34.13
2019-02-09T14:29:39.017Z,61.17
2019-02-09T14:32:09.159Z,47.57
2019-02-09T14:34:38.886Z,39.47
2019-02-09T14:37:08.899Z,36.53
2019-02-09T14:39:38.496Z,43.27
2019-02-09T14:42:08.411Z,43.53
2019-02-09T14:44:38.010Z,37.77
2019-02-09T14:47:07.699Z,40.33
2019-02-09T14:49:39.657Z,38.03
2019-02-09T14:52:09.350Z,49.67
2019-02-09T14:54:40.253Z,39.47
2019-02-09T14:57:09.877Z,46.30
2019-02-09T14:59:39.488Z,50.63
2019-02-09T15:02:10.829Z,49.63
2019-02-09T15:04:40.437Z,43.97
2019-02-09T15:07:10.054Z,50.70
2019-02-09T15:09:39.658Z,41.97
2019-02-09T15:12:09.281Z,42.83
2019-02-09T15:14:38.900Z,44.47
2019-02-09T15:17:08.533Z,37.63
2019-02-09T15:19:39.665Z,43.53
2019-02-09T15:22:09.333Z,33.20
2019-02-09T15:24:38.970Z,40.27
2019-02-09T15:27:08.644Z,32.87
2019-02-09T15:29:38.261Z,34.10
2019-02-09T15:32:08.222Z,29.10
2019-02-09T15:34:37.822Z,34.10
2019-02-09T15:37:07.421Z,37.07
2019-02-09T15:39:37.006Z,30.17
2019-02-09T15:42:06.677Z,26.57
2019-02-09T15:44:36.282Z,48.93
2019-02-09T15:47:05.957Z,37.50
2019-02-09T15:49:35.562Z,33.43
2019-02-09T15:52:06.001Z,31.43
2019-02-09T15:54:35.646Z,32.47
2019-02-09T15:57:05.896Z,27.30
2019-02-09T15:59:35.481Z,28.13
2019-02-09T16:02:05.169Z,26.13
2019-02-09T16:04:34.797Z,35.60
2019-02-09T16:07:04.662Z,29.53
2019-02-09T16:09:34.266Z,26.77
2019-02-09T16:12:03.867Z,38.80
2019-02-09T16:14:33.486Z,33.20
2019-02-09T16:17:03.197Z,41.20
2019-02-09T16:19:32.802Z,34.13
2019-02-09T16:22:02.406Z,36.13
2019-02-09T16:24:32.021Z,20.17
2019-02-09T16:27:01.638Z,37.83
2019-02-09T16:29:31.271Z,43.87
2019-02-09T16:32:00.881Z,37.40
2019-02-09T16:34:30.477Z,34.00
2019-02-09T16:37:00.235Z,35.53
2019-02-09T16:39:29.906Z,35.70
2019-02-09T16:41:59.530Z,23.73
2019-02-09T16:44:29.170Z,40.63
2019-02-09T16:46:58.774Z,38.47
2019-02-09T16:49:28.445Z,51.63
2019-02-09T16:51:58.049Z,50.23
2019-02-09T16:54:27.741Z,39.37
2019-02-09T16:56:57.338Z,35.17
2019-02-09T16:59:26.966Z,40.67
2019-02-09T17:01:57.930Z,35.90
2019-02-09T17:04:33.102Z,28.90
2019-02-09T17:06:58.871Z,45.00
2019-02-09T17:09:28.717Z,43.90
2019-02-09T17:11:58.315Z,43.93
2019-02-09T17:14:30.900Z,31.97
2019-02-09T17:17:00.653Z,26.93
2019-02-09T17:19:30.377Z,45.07
2019-02-09T17:22:00.202Z,49.77
2019-02-09T17:24:29.863Z,29.60
2019-02-09T17:26:59.469Z,31.37
2019-02-09T17:29:29.137Z,28.33
2019-02-09T17:31:58.722Z,43.33
2019-02-09T17:34:28.334Z,25.10
2019-02-09T18:06:41.733Z,33.27
2019-02-09T18:09:11.582Z,43.37
2019-02-09T18:11:41.374Z,24.00
2019-02-09T18:14:11.125Z,45.77
2019-02-09T18:16:40.711Z,33.43
2019-02-09T18:19:10.401Z,42.90
2019-02-09T18:21:39.997Z,23.07
2019-02-09T18:24:09.617Z,35.50
2019-02-09T18:26:39.218Z,48.43
2019-02-09T18:29:08.933Z,34.17
2019-02-09T18:31:38.686Z,34.10
2019-02-09T18:34:08.307Z,36.57
2019-02-09T18:36:38.043Z,36.97
2019-02-09T18:39:11.418Z,23.83
2019-02-09T18:41:41.041Z,36.73
2019-02-09T18:44:10.642Z,34.20
2019-02-09T18:46:40.317Z,41.60
2019-02-09T18:49:10.093Z,41.23
2019-02-09T18:51:39.733Z,37.77
2019-02-09T18:54:09.341Z,30.13
2019-02-09T18:56:39.018Z,29.23
2019-02-09T18:59:08.618Z,25.00
2019-02-09T19:01:38.281Z,26.30
2019-02-09T19:04:07.969Z,28.47
2019-02-09T19:06:37.559Z,33.13
2019-02-09T19:09:08.865Z,30.23
2019-02-09T19:11:38.461Z,23.57
2019-02-09T19:14:08.141Z,23.67
2019-02-09T19:16:37.728Z,25.17
2019-02-09T19:19:07.669Z,28.33
2019-02-09T19:21:37.269Z,24.40
2019-02-09T19:24:07.022Z,32.87
2019-02-09T19:26:36.746Z,33.03
2019-02-09T19:29:06.989Z,34.03
2019-02-09T19:31:36.623Z,32.63
2019-02-09T19:34:06.356Z,33.50
2019-02-09T19:36:36.182Z,27.67
2019-02-09T19:39:08.897Z,31.53
2019-02-09T19:41:38.497Z,26.17
2019-02-09T19:44:08.094Z,21.97
2019-02-09T19:46:37.693Z,27.73
2019-02-09T19:49:07.361Z,35.07
2019-02-09T19:51:36.987Z,19.07
2019-02-09T19:54:06.610Z,27.00
2019-02-09T19:56:36.215Z,30.73
2019-02-09T19:59:05.844Z,26.00
2019-02-09T20:01:35.459Z,31.17
2019-02-09T20:04:05.649Z,33.60
2019-02-09T20:06:35.340Z,19.10
2019-02-09T20:09:07.788Z,39.97
2019-02-09T20:11:37.455Z,24.53
2019-02-09T20:14:07.046Z,40.60
2019-02-09T20:16:36.740Z,19.53
2019-02-09T20:19:06.341Z,27.83
2019-02-09T20:21:36.009Z,23.73
2019-02-09T20:24:06.069Z,16.10
2019-02-09T20:26:35.648Z,25.13
2019-02-09T20:29:05.578Z,33.80
2019-02-09T20:31:35.170Z,22.10
2019-02-09T20:34:05.107Z,16.13
2019-02-09T20:36:34.783Z,22.60
2019-02-09T20:39:07.499Z,31.17
2019-02-09T20:41:37.103Z,21.53
2019-02-09T20:44:06.818Z,14.43
2019-02-09T20:46:36.410Z,18.27
2019-02-09T20:49:06.275Z,17.50
2019-02-09T20:51:35.880Z,22.13
2019-02-09T20:54:06.233Z,20.13
2019-02-09T20:56:35.985Z,12.03
2019-02-09T20:59:05.737Z,26.57
2019-02-09T21:01:35.326Z,15.93
2019-02-09T21:04:05.061Z,22.77
2019-02-09T21:06:34.691Z,25.13
2019-02-09T21:09:07.841Z,22.23
2019-02-09T21:11:37.445Z,18.50
2019-02-09T21:14:07.117Z,20.30
2019-02-09T21:16:36.717Z,21.00
2019-02-09T21:19:06.320Z,25.27
2019-02-09T21:21:35.926Z,16.63
2019-02-09T21:24:07.309Z,14.30
2019-02-09T21:26:37.185Z,18.50
2019-02-09T21:29:06.862Z,17.07
2019-02-09T21:31:36.459Z,18.63
2019-02-09T21:34:06.193Z,21.40
2019-02-09T21:36:35.801Z,23.20
2019-02-09T21:39:09.111Z,24.63
2019-02-09T21:41:38.737Z,13.73
2019-02-09T21:44:08.409Z,19.17
2019-02-09T21:46:38.001Z,18.50
2019-02-09T21:49:07.601Z,25.77
2019-02-09T21:51:37.210Z,23.73
2019-02-09T21:54:06.911Z,22.10
2019-02-09T21:56:36.585Z,22.90
2019-02-09T21:59:06.246Z,20.60
2019-02-09T22:01:35.838Z,15.33
2019-02-09T22:04:07.161Z,19.43
2019-02-09T22:06:36.810Z,16.47
2019-02-09T22:09:08.571Z,18.47
2019-02-09T22:11:38.435Z,11.97
2019-02-09T22:14:09.118Z,18.20
2019-02-09T22:16:38.930Z,20.73
2019-02-09T22:19:09.697Z,23.13
2019-02-09T22:21:39.550Z,21.97
2019-02-09T22:24:09.391Z,13.10
2019-02-09T22:26:40.236Z,12.03
2019-02-09T22:29:09.870Z,13.47
2019-02-09T22:31:40.498Z,17.53
2019-02-09T22:34:10.155Z,15.03
2019-02-09T22:36:39.881Z,15.53
2019-02-09T22:39:09.905Z,13.83
2019-02-09T22:41:40.585Z,12.83
2019-02-09T22:44:10.241Z,14.20
2019-02-09T22:46:39.846Z,14.23
2019-02-09T22:49:09.461Z,19.37
2019-02-09T22:51:39.082Z,19.20
2019-02-09T22:54:08.917Z,19.90
2019-02-09T22:56:38.521Z,18.27
2019-02-09T22:59:08.125Z,14.97
2019-02-09T23:01:46.737Z,24.77
2019-02-09T23:05:05.182Z,19.50
2019-02-09T23:07:35.129Z,25.93
2019-02-09T23:10:11.141Z,22.83
2019-02-09T23:12:48.149Z,9.53
2019-02-09T23:15:12.245Z,9.13
2019-02-09T23:17:41.854Z,14.40
2019-02-09T23:20:11.824Z,16.47
2019-02-09T23:22:41.435Z,11.57
2019-02-09T23:25:11.098Z,13.87
2019-02-09T23:27:40.701Z,11.83
2019-02-09T23:30:12.142Z,15.43
2019-02-09T23:32:41.745Z,14.17
2019-02-09T23:35:11.349Z,13.33
2019-02-09T23:37:40.943Z,9.60
2019-02-09T23:40:10.689Z,9.33
2019-02-09T23:42:40.532Z,10.73
2019-02-09T23:45:10.212Z,14.43
2019-02-09T23:47:39.807Z,17.23
2019-02-09T23:50:09.581Z,20.97
2019-02-09T23:52:39.172Z,10.20
2019-02-09T23:55:08.861Z,17.47
2019-02-09T23:57:39.582Z,11.37
